createdAt,value
2023-04-18T00:01:50.936Z,13.40
2023-04-18T00:04:18.936Z,12.43
2023-04-18T00:06:50.162Z,12.55
2023-04-18T00:09:17.071Z,12.07
2023-04-18T00:11:44.000Z,13.77
2023-04-18T00:14:10.918Z,13.02
2023-04-18T00:16:38.873Z,13.43
2023-04-18T00:19:05.995Z,13.48
2023-04-18T00:21:33.341Z,13.20
2023-04-18T00:24:00.140Z,13.90
2023-04-18T00:26:27.919Z,13.68
2023-04-18T00:28:54.840Z,13.27
2023-04-18T00:31:21.740Z,13.15
2023-04-18T00:33:48.698Z,13.63
2023-04-18T00:36:15.738Z,12.80
2023-04-18T00:38:42.563Z,13.25
2023-04-18T00:41:09.308Z,13.10
2023-04-18T00:43:37.431Z,13.73
2023-04-18T00:46:04.304Z,13.82
2023-04-18T00:48:31.110Z,12.93
2023-04-18T00:50:58.254Z,14.40
2023-04-18T00:53:24.962Z,13.05
2023-04-18T00:55:51.786Z,14.15
2023-04-18T00:58:18.644Z,13.40
2023-04-18T01:00:45.875Z,13.60
2023-04-18T01:03:14.667Z,14.38
2023-04-18T01:05:41.800Z,14.18
2023-04-18T01:08:08.595Z,12.98
2023-04-18T01:10:35.956Z,13.32
2023-04-18T01:13:15.302Z,14.20
2023-04-18T01:15:46.585Z,13.60
2023-04-18T01:18:13.626Z,14.82
2023-04-18T01:20:44.065Z,13.43
2023-04-18T01:23:10.863Z,14.70
2023-04-18T01:25:37.866Z,15.07
2023-04-18T01:28:05.054Z,13.95
2023-04-18T01:30:32.505Z,14.75
2023-04-18T01:33:01.453Z,13.38
2023-04-18T01:35:28.637Z,13.63
2023-04-18T01:37:55.671Z,13.32
2023-04-18T01:40:22.655Z,13.43
2023-04-18T01:42:49.405Z,14.65
2023-04-18T01:45:16.388Z,13.43
2023-04-18T01:47:43.884Z,12.85
2023-04-18T01:50:10.995Z,12.45
2023-04-18T01:52:37.740Z,12.25
2023-04-18T01:55:06.278Z,13.52
2023-04-18T01:57:34.088Z,12.85
2023-04-18T02:00:00.890Z,13.43
2023-04-18T02:02:27.893Z,13.77
2023-04-18T02:04:54.768Z,11.93
2023-04-18T02:07:21.702Z,13.35
2023-04-18T02:09:48.531Z,13.65
2023-04-18T02:12:15.321Z,11.98
2023-04-18T02:14:42.112Z,12.63
2023-04-18T02:17:08.957Z,11.90
2023-04-18T02:19:35.874Z,13.52
2023-04-18T02:22:02.650Z,12.75
2023-04-18T02:24:29.557Z,12.95
2023-04-18T02:26:56.298Z,12.35
2023-04-18T02:29:23.198Z,13.65
2023-04-18T02:31:50.184Z,12.95
2023-04-18T02:34:16.954Z,12.70
2023-04-18T02:36:43.722Z,12.93
2023-04-18T02:39:10.592Z,12.07
2023-04-18T02:41:39.374Z,11.98
2023-04-18T02:44:07.272Z,13.48
2023-04-18T02:46:34.253Z,13.20
2023-04-18T02:49:01.055Z,12.40
2023-04-18T02:51:28.159Z,12.20
2023-04-18T02:53:56.081Z,12.35
2023-04-18T02:56:22.991Z,12.50
2023-04-18T02:58:50.037Z,12.20
2023-04-18T03:01:17.726Z,12.48
2023-04-18T03:03:44.939Z,12.20
2023-04-18T03:06:11.673Z,12.45
2023-04-18T03:08:39.015Z,12.13
2023-04-18T03:11:05.737Z,12.25
2023-04-18T03:13:33.134Z,12.82
2023-04-18T03:16:00.257Z,12.85
2023-04-18T03:18:27.009Z,11.52
2023-04-18T03:20:53.748Z,11.70
2023-04-18T03:23:20.684Z,11.80
2023-04-18T03:25:47.468Z,11.38
2023-04-18T03:28:14.190Z,11.43
2023-04-18T03:30:41.121Z,11.98
2023-04-18T03:33:08.701Z,11.32
2023-04-18T03:35:35.461Z,11.63
2023-04-18T03:38:02.310Z,12.18
2023-04-18T03:40:29.105Z,11.85
2023-04-18T03:42:55.816Z,12.02
2023-04-18T03:45:22.736Z,12.20
2023-04-18T03:47:50.273Z,11.70
2023-04-18T03:50:17.133Z,11.95
2023-04-18T03:52:43.914Z,12.63
2023-04-18T03:55:11.508Z,13.13
2023-04-18T03:57:38.871Z,12.10
2023-04-18T04:00:08.402Z,12.20
2023-04-18T04:02:35.300Z,12.00
2023-04-18T04:05:02.816Z,10.95
2023-04-18T04:07:29.738Z,11.80
2023-04-18T04:09:56.541Z,11.73
2023-04-18T04:12:23.325Z,11.60
2023-04-18T04:14:50.165Z,11.93
2023-04-18T04:17:16.895Z,11.82
2023-04-18T04:19:43.625Z,11.77
2023-04-18T04:22:10.793Z,11.57
2023-04-18T04:24:40.392Z,12.27
2023-04-18T04:29:35.458Z,12.30
2023-04-18T04:32:02.327Z,12.30
2023-04-18T04:34:29.139Z,12.15
2023-04-18T04:36:55.985Z,14.07
2023-04-18T04:39:22.721Z,11.45
2023-04-18T04:41:49.551Z,12.75
2023-04-18T04:44:17.973Z,11.13
2023-04-18T04:46:45.020Z,11.20
2023-04-18T04:49:12.153Z,11.00
2023-04-18T04:51:39.967Z,11.27
2023-04-18T04:54:56.435Z,11.63
2023-04-18T04:57:23.271Z,12.18
2023-04-18T04:59:49.987Z,11.00
2023-04-18T05:02:16.986Z,11.10
2023-04-18T05:04:44.566Z,11.70
2023-04-18T05:07:11.298Z,10.73
2023-04-18T05:09:38.750Z,11.85
2023-04-18T05:12:05.845Z,12.40
2023-04-18T05:14:32.662Z,11.57
2023-04-18T05:16:59.428Z,12.57
2023-04-18T05:19:26.347Z,12.20
2023-04-18T05:21:53.158Z,11.98
2023-04-18T05:24:19.899Z,11.85
2023-04-18T05:26:46.833Z,12.55
2023-04-18T05:29:13.687Z,13.40
2023-04-18T05:31:40.430Z,12.75
2023-04-18T05:34:07.233Z,12.40
2023-04-18T05:36:34.030Z,11.65
2023-04-18T05:39:00.754Z,12.05
2023-04-18T05:41:27.568Z,11.30
2023-04-18T05:44:04.269Z,11.65
2023-04-18T05:46:32.186Z,11.85
2023-04-18T05:48:59.156Z,12.65
2023-04-18T05:51:26.865Z,11.52
2023-04-18T05:53:53.762Z,12.55
2023-04-18T05:56:20.826Z,13.05
2023-04-18T05:58:47.977Z,12.50
2023-04-18T06:01:14.919Z,12.35
2023-04-18T06:03:42.525Z,12.75
2023-04-18T06:06:09.692Z,12.05
2023-04-18T06:08:38.435Z,13.07
2023-04-18T06:11:05.235Z,14.97
2023-04-18T06:13:32.226Z,11.65
2023-04-18T06:15:59.173Z,12.20
2023-04-18T06:18:25.934Z,12.43
2023-04-18T06:20:52.959Z,12.65
2023-04-18T06:23:19.763Z,12.77
2023-04-18T06:25:46.474Z,12.75
2023-04-18T06:28:13.216Z,12.40
2023-04-18T06:30:40.157Z,13.55
2023-04-18T06:33:10.488Z,12.15
2023-04-18T06:35:37.421Z,14.40
2023-04-18T06:38:04.378Z,12.07
2023-04-18T06:40:31.221Z,11.70
2023-04-18T06:42:57.961Z,13.68
2023-04-18T06:45:24.837Z,12.68
2023-04-18T06:47:52.631Z,11.95
2023-04-18T06:50:19.397Z,12.43
2023-04-18T06:52:46.336Z,15.95
2023-04-18T06:55:14.559Z,15.82
2023-04-18T06:57:41.806Z,12.50
2023-04-18T07:00:10.357Z,13.57
2023-04-18T07:02:37.991Z,13.88
2023-04-18T07:05:05.451Z,11.95
2023-04-18T07:07:33.214Z,12.23
2023-04-18T07:10:00.036Z,12.38
2023-04-18T07:12:27.384Z,15.43
2023-04-18T07:14:54.781Z,16.35
2023-04-18T07:17:21.572Z,12.07
2023-04-18T07:19:48.506Z,15.27
2023-04-18T07:22:15.431Z,15.43
2023-04-18T07:24:42.484Z,12.23
2023-04-18T07:27:09.685Z,11.90
2023-04-18T07:29:36.714Z,12.00
2023-04-18T07:32:03.570Z,10.52
2023-04-18T07:34:30.588Z,11.82
2023-04-18T07:36:57.824Z,12.27
2023-04-18T07:39:24.549Z,12.80
2023-04-18T07:41:51.314Z,12.88
2023-04-18T07:44:18.723Z,13.90
2023-04-18T07:46:46.393Z,11.88
2023-04-18T07:49:16.044Z,11.10
2023-04-18T07:51:43.214Z,10.95
2023-04-18T07:54:11.303Z,12.35
2023-04-18T07:56:38.216Z,12.30
2023-04-18T07:59:05.133Z,11.70
2023-04-18T08:01:31.865Z,11.98
2023-04-18T08:04:01.813Z,12.20
2023-04-18T08:06:29.308Z,13.27
2023-04-18T08:08:56.166Z,13.45
2023-04-18T08:11:23.057Z,14.55
2023-04-18T08:13:50.032Z,11.93
2023-04-18T08:16:17.473Z,11.75
2023-04-18T08:18:44.550Z,11.32
2023-04-18T08:21:11.618Z,11.88
2023-04-18T08:23:38.579Z,11.95
2023-04-18T08:26:05.548Z,11.65
2023-04-18T08:28:32.451Z,14.10
2023-04-18T08:30:59.237Z,12.02
2023-04-18T08:33:26.494Z,10.88
2023-04-18T08:35:53.442Z,11.38
2023-04-18T08:38:20.238Z,12.02
2023-04-18T08:40:47.284Z,11.45
2023-04-18T08:43:15.206Z,11.73
2023-04-18T08:45:43.192Z,10.93
2023-04-18T08:48:16.843Z,11.15
2023-04-18T08:50:43.919Z,11.32
2023-04-18T08:53:11.117Z,13.85
2023-04-18T08:55:38.296Z,12.27
2023-04-18T08:58:07.058Z,11.50
2023-04-18T09:00:34.325Z,11.40
2023-04-18T09:03:03.792Z,11.55
2023-04-18T09:05:31.056Z,11.90
2023-04-18T09:07:57.865Z,11.77
2023-04-18T09:10:32.867Z,12.20
2023-04-18T09:13:01.154Z,12.00
2023-04-18T09:15:29.345Z,13.80
2023-04-18T09:17:58.139Z,11.10
2023-04-18T09:20:38.063Z,12.10
2023-04-18T09:23:06.366Z,12.18
2023-04-18T09:25:43.304Z,11.82
2023-04-18T09:28:28.137Z,11.03
2023-04-18T09:31:11.986Z,12.70
2023-04-18T09:33:41.487Z,14.57
2023-04-18T09:38:48.698Z,11.10
2023-04-18T09:41:21.210Z,11.40
2023-04-18T09:43:48.541Z,10.40
2023-04-18T09:46:17.696Z,11.15
2023-04-18T09:48:44.811Z,10.98
2023-04-18T09:51:16.151Z,10.05
2023-04-18T09:53:47.825Z,10.52
2023-04-18T09:56:27.682Z,10.30
2023-04-18T09:59:02.648Z,11.18
2023-04-18T10:01:29.989Z,13.23
2023-04-18T10:03:56.884Z,9.90
2023-04-18T10:06:23.654Z,9.90
2023-04-18T10:08:50.547Z,12.38
2023-04-18T10:11:18.656Z,11.65
2023-04-18T10:16:14.826Z,10.85
2023-04-18T10:18:42.315Z,13.13
2023-04-18T10:21:09.332Z,10.63
2023-04-18T10:23:39.825Z,13.45
2023-04-18T10:26:07.686Z,11.50
2023-04-18T10:28:57.426Z,12.15
2023-04-18T10:31:28.412Z,10.50
2023-04-18T10:34:17.863Z,10.10
2023-04-18T10:37:04.403Z,10.55
2023-04-18T10:39:31.336Z,10.93
2023-04-18T10:41:58.136Z,10.68
2023-04-18T10:44:25.040Z,15.25
2023-04-18T10:46:51.968Z,11.25
2023-04-18T10:49:23.352Z,12.30
2023-04-18T10:51:56.279Z,11.50
2023-04-18T10:54:42.200Z,12.43
2023-04-18T10:57:10.364Z,12.85
2023-04-18T10:59:41.949Z,11.97
2023-04-18T11:02:21.307Z,12.02
2023-04-18T11:04:52.042Z,14.07
2023-04-18T11:07:18.933Z,12.95
2023-04-18T11:09:55.132Z,11.68
2023-04-18T11:12:22.509Z,11.00
2023-04-18T11:14:50.407Z,16.02
2023-04-18T11:17:22.264Z,11.68
2023-04-18T11:19:49.877Z,11.73
2023-04-18T11:22:17.152Z,11.50
2023-04-18T11:24:44.964Z,11.60
2023-04-18T11:27:12.422Z,11.00
2023-04-18T11:29:39.223Z,12.02
2023-04-18T11:32:07.448Z,12.00
2023-04-18T11:34:34.325Z,10.55
2023-04-18T11:37:01.204Z,12.68
2023-04-18T11:39:28.280Z,11.40
2023-04-18T11:41:57.204Z,13.52
2023-04-18T11:44:24.756Z,13.48
2023-04-18T11:46:52.310Z,12.20
2023-04-18T11:49:29.024Z,13.55
2023-04-18T11:51:56.162Z,13.82
2023-04-18T11:54:42.708Z,11.10
2023-04-18T11:57:26.450Z,11.65
2023-04-18T11:59:57.763Z,11.20
2023-04-18T12:02:39.251Z,10.68
2023-04-18T12:05:06.671Z,10.60
2023-04-18T12:07:37.947Z,10.77
2023-04-18T12:10:07.185Z,10.70
2023-04-18T12:12:34.048Z,11.13
2023-04-18T12:15:06.632Z,11.18
2023-04-18T12:17:33.700Z,13.18
2023-04-18T12:20:10.155Z,12.48
2023-04-18T12:22:42.086Z,10.98
2023-04-18T12:25:27.305Z,11.35
2023-04-18T12:27:57.413Z,11.68
2023-04-18T12:30:31.213Z,13.80
2023-04-18T12:32:59.619Z,11.55
2023-04-18T12:35:26.609Z,11.38
2023-04-18T12:37:54.809Z,11.40
2023-04-18T12:40:23.138Z,11.50
2023-04-18T12:42:50.738Z,14.85
2023-04-18T12:45:18.199Z,12.00
2023-04-18T12:47:46.433Z,12.80
2023-04-18T12:50:23.887Z,11.00
2023-04-18T12:52:52.464Z,11.45
2023-04-18T12:55:19.363Z,14.25
2023-04-18T12:57:46.151Z,12.85
2023-04-18T13:00:14.181Z,13.52
2023-04-18T13:05:09.662Z,11.00
2023-04-18T13:07:40.753Z,10.52
2023-04-18T13:10:08.994Z,11.80
2023-04-18T13:12:36.002Z,12.70
2023-04-18T13:15:03.898Z,11.45
2023-04-18T13:17:30.859Z,10.75
2023-04-18T13:19:57.623Z,10.98
2023-04-18T13:22:24.819Z,9.88
2023-04-18T13:24:58.931Z,12.70
2023-04-18T13:27:25.836Z,9.77
2023-04-18T13:29:52.907Z,11.02
2023-04-18T13:32:19.818Z,11.90
2023-04-18T13:34:47.050Z,11.07
2023-04-18T13:37:16.988Z,11.27
2023-04-18T13:39:43.869Z,11.15
2023-04-18T13:42:10.648Z,11.05
2023-04-18T13:44:37.817Z,11.73
2023-04-18T13:47:05.950Z,11.32
2023-04-18T13:49:33.463Z,13.77
2023-04-18T13:52:00.981Z,14.27
2023-04-18T13:54:28.700Z,13.32
2023-04-18T13:56:57.325Z,11.57
2023-04-18T13:59:27.620Z,11.02
2023-04-18T14:01:54.751Z,11.35
2023-04-18T14:04:22.517Z,11.80
2023-04-18T14:06:49.816Z,11.95
2023-04-18T14:09:17.342Z,12.50
2023-04-18T14:11:44.617Z,11.85
2023-04-18T14:14:11.330Z,11.25
2023-04-18T14:16:38.195Z,11.55
2023-04-18T14:19:04.965Z,11.57
2023-04-18T14:21:31.766Z,12.15
2023-04-18T14:23:58.642Z,13.93
2023-04-18T14:26:25.673Z,12.13
2023-04-18T14:28:52.501Z,12.60
2023-04-18T14:31:19.429Z,12.00
2023-04-18T14:33:46.447Z,11.98
2023-04-18T14:36:15.048Z,12.25
2023-04-18T14:38:42.360Z,11.80
2023-04-18T14:41:09.095Z,12.70
2023-04-18T14:43:36.022Z,12.85
2023-04-18T14:46:02.881Z,11.05
2023-04-18T14:48:30.113Z,11.00
2023-04-18T14:50:57.860Z,11.55
2023-04-18T14:53:25.251Z,11.38
2023-04-18T14:55:52.350Z,11.55
2023-04-18T14:58:19.121Z,12.13
2023-04-18T15:00:45.953Z,14.30
2023-04-18T15:03:12.886Z,12.68
2023-04-18T15:05:43.059Z,11.50
2023-04-18T15:08:11.591Z,12.52
2023-04-18T15:10:40.170Z,12.30
2023-04-18T15:13:06.910Z,11.00
2023-04-18T15:15:38.031Z,15.10
2023-04-18T15:18:04.940Z,12.23
2023-04-18T15:20:31.804Z,10.90
2023-04-18T15:22:58.678Z,12.82
2023-04-18T15:25:26.206Z,10.77
2023-04-18T15:27:53.051Z,11.73
2023-04-18T15:30:20.246Z,11.13
2023-04-18T15:32:48.552Z,12.75
2023-04-18T15:35:15.453Z,11.03
2023-04-18T15:37:42.354Z,11.75
2023-04-18T15:40:11.332Z,11.63
2023-04-18T15:42:39.132Z,14.07
2023-04-18T15:45:06.830Z,11.07
2023-04-18T15:47:34.547Z,13.32
2023-04-18T15:50:01.403Z,11.80
2023-04-18T15:52:28.301Z,10.60
2023-04-18T15:54:57.346Z,11.13
2023-04-18T15:57:24.333Z,12.60
2023-04-18T15:59:51.235Z,12.90
2023-04-18T16:02:18.154Z,12.05
2023-04-18T16:04:45.206Z,11.40
2023-04-18T16:07:12.237Z,11.52
2023-04-18T16:09:39.031Z,11.45
2023-04-18T16:12:07.338Z,11.23
2023-04-18T16:14:34.287Z,13.03
2023-04-18T16:17:01.086Z,10.85
2023-04-18T16:19:27.901Z,11.55
2023-04-18T16:21:54.791Z,11.30
2023-04-18T16:24:21.512Z,11.90
2023-04-18T16:26:48.393Z,11.52
2023-04-18T16:29:15.260Z,11.20
2023-04-18T16:31:43.269Z,11.45
2023-04-18T16:34:10.051Z,10.80
2023-04-18T16:36:36.924Z,10.43
2023-04-18T16:39:04.783Z,10.43
2023-04-18T16:41:31.749Z,11.23
2023-04-18T16:43:58.625Z,12.90
2023-04-18T16:46:25.685Z,11.88
2023-04-18T16:48:52.743Z,11.50
2023-04-18T16:51:19.688Z,11.55
2023-04-18T16:53:46.918Z,10.48
2023-04-18T16:56:13.702Z,11.98
2023-04-18T16:58:41.094Z,11.18
2023-04-18T17:01:10.546Z,11.60
2023-04-18T17:03:37.638Z,14.00
2023-04-18T17:06:04.954Z,11.50
2023-04-18T17:08:33.789Z,12.50
2023-04-18T17:11:02.295Z,12.60
2023-04-18T17:13:31.758Z,14.35
2023-04-18T17:18:25.290Z,12.80
2023-04-18T17:20:52.538Z,12.68
2023-04-18T17:23:19.388Z,11.23
2023-04-18T17:25:46.364Z,12.23
2023-04-18T17:28:14.168Z,11.57
2023-04-18T17:30:44.398Z,14.23
2023-04-18T17:33:11.434Z,11.65
2023-04-18T17:35:41.500Z,14.10
2023-04-18T17:38:09.177Z,11.00
2023-04-18T17:40:36.011Z,13.70
2023-04-18T17:43:02.911Z,10.70
2023-04-18T17:45:30.058Z,12.32
2023-04-18T17:47:58.420Z,10.80
2023-04-18T17:50:25.375Z,12.80
2023-04-18T17:52:52.133Z,11.25
2023-04-18T17:55:19.130Z,13.77
2023-04-18T17:57:46.527Z,14.32
2023-04-18T18:00:14.715Z,12.27
2023-04-18T18:02:42.817Z,10.90
2023-04-18T18:05:13.358Z,11.52
2023-04-18T18:07:43.085Z,12.82
2023-04-18T18:10:11.470Z,11.02
2023-04-18T18:12:40.048Z,11.77
2023-04-18T18:15:08.331Z,10.80
2023-04-18T18:17:35.328Z,10.73
2023-04-18T18:20:02.134Z,11.20
2023-04-18T18:22:28.940Z,12.25
2023-04-18T18:24:56.767Z,11.43
2023-04-18T18:27:23.641Z,11.40
2023-04-18T18:29:50.533Z,11.23
2023-04-18T18:32:17.493Z,11.40
2023-04-18T18:34:44.265Z,12.23
2023-04-18T18:37:11.054Z,10.90
2023-04-18T18:39:38.017Z,13.18
2023-04-18T18:42:04.823Z,12.13
2023-04-18T18:44:32.641Z,12.05
2023-04-18T18:46:59.981Z,11.68
2023-04-18T18:49:26.962Z,14.60
2023-04-18T18:51:53.782Z,12.85
2023-04-18T18:54:20.604Z,15.43
2023-04-18T18:56:47.430Z,10.90
2023-04-18T18:59:15.908Z,11.35
2023-04-18T19:01:43.045Z,14.82
2023-04-18T19:04:10.149Z,13.20
2023-04-18T19:06:37.209Z,13.90
2023-04-18T19:09:05.411Z,14.82
2023-04-18T19:11:32.315Z,15.10
2023-04-18T19:13:59.170Z,12.30
2023-04-18T19:16:26.281Z,11.27
2023-04-18T19:18:53.149Z,12.57
2023-04-18T19:21:20.434Z,15.93
2023-04-18T19:23:47.358Z,13.18
2023-04-18T19:26:14.191Z,12.00
2023-04-18T19:28:41.613Z,13.25
2023-04-18T19:31:09.725Z,13.30
2023-04-18T19:33:36.499Z,12.63
2023-04-18T19:36:03.486Z,13.27
2023-04-18T19:38:30.484Z,14.27
2023-04-18T19:40:57.353Z,11.90
2023-04-18T19:43:24.111Z,12.32
2023-04-18T19:45:52.623Z,13.50
2023-04-18T19:48:21.580Z,12.52
2023-04-18T19:50:49.694Z,12.77
2023-04-18T19:53:19.096Z,14.43
2023-04-18T19:55:47.517Z,12.70
2023-04-18T19:58:49.144Z,11.68
2023-04-18T20:01:17.229Z,12.13
2023-04-18T20:03:44.313Z,13.77
2023-04-18T20:06:11.421Z,13.13
2023-04-18T20:08:39.636Z,12.20
2023-04-18T20:11:10.754Z,14.48
2023-04-18T20:13:37.902Z,12.50
2023-04-18T20:16:05.481Z,12.18
2023-04-18T20:18:32.576Z,13.90
2023-04-18T20:20:59.365Z,14.63
2023-04-18T20:23:26.365Z,14.07
2023-04-18T20:25:53.551Z,13.00
2023-04-18T20:28:20.608Z,14.27
2023-04-18T20:30:48.133Z,12.93
2023-04-18T20:33:14.991Z,13.35
2023-04-18T20:35:41.919Z,13.30
2023-04-18T20:38:11.189Z,13.60
2023-04-18T20:40:43.061Z,13.73
2023-04-18T20:43:10.141Z,13.05
2023-04-18T20:45:42.903Z,14.52
2023-04-18T20:48:10.331Z,13.35
2023-04-18T20:50:37.228Z,13.10
2023-04-18T20:53:04.143Z,13.70
2023-04-18T20:55:31.188Z,13.00
2023-04-18T20:57:58.756Z,14.20
2023-04-18T21:00:25.977Z,14.10
2023-04-18T21:02:52.960Z,14.10
2023-04-18T21:05:20.275Z,13.82
2023-04-18T21:07:47.115Z,14.57
2023-04-18T21:10:13.942Z,14.43
2023-04-18T21:12:40.663Z,15.45
2023-04-18T21:15:08.080Z,15.52
2023-04-18T21:17:34.981Z,14.52
2023-04-18T21:20:01.807Z,14.13
2023-04-18T21:22:28.592Z,14.85
2023-04-18T21:24:55.455Z,15.00
2023-04-18T21:27:22.818Z,13.38
2023-04-18T21:29:50.382Z,13.27
2023-04-18T21:32:17.382Z,14.57
2023-04-18T21:34:44.336Z,13.18
2023-04-18T21:37:11.127Z,14.63
2023-04-18T21:39:38.466Z,15.05
2023-04-18T21:42:05.378Z,15.63
2023-04-18T21:44:32.278Z,13.93
2023-04-18T21:46:59.274Z,14.23
2023-04-18T21:49:26.006Z,14.30
2023-04-18T21:51:52.769Z,15.40
2023-04-18T21:54:20.347Z,13.50
2023-04-18T21:56:47.127Z,13.88
2023-04-18T21:59:13.844Z,13.57
2023-04-18T22:01:40.857Z,14.02
2023-04-18T22:04:07.932Z,13.18
2023-04-18T22:06:34.856Z,12.80
2023-04-18T22:09:02.287Z,14.32
2023-04-18T22:11:29.129Z,17.70
2023-04-18T22:13:58.185Z,13.80
2023-04-18T22:16:25.291Z,14.40
2023-04-18T22:18:52.216Z,13.95
2023-04-18T22:21:18.968Z,16.02
2023-04-18T22:23:45.955Z,15.05
2023-04-18T22:26:12.852Z,16.73
2023-04-18T22:28:39.645Z,28.80
2023-04-18T22:31:06.746Z,20.83
2023-04-18T22:33:33.505Z,24.17
2023-04-18T22:36:00.902Z,17.95
2023-04-18T22:38:27.863Z,18.55
2023-04-18T22:40:54.608Z,18.90
2023-04-18T22:43:23.759Z,18.65
2023-04-18T22:45:51.263Z,23.75
2023-04-18T22:48:18.352Z,18.80
2023-04-18T22:50:46.433Z,18.20
2023-04-18T22:53:14.428Z,16.90
2023-04-18T22:55:41.888Z,15.98
2023-04-18T22:58:09.350Z,16.83
2023-04-18T23:00:36.495Z,17.65
2023-04-18T23:03:03.452Z,15.45
2023-04-18T23:05:30.541Z,17.17
2023-04-18T23:07:59.585Z,16.58
2023-04-18T23:10:27.153Z,15.95
2023-04-18T23:12:53.923Z,15.82
2023-04-18T23:15:25.626Z,16.83
2023-04-18T23:18:01.737Z,16.75
2023-04-18T23:20:28.678Z,14.55
2023-04-18T23:22:56.109Z,16.20
2023-04-18T23:25:22.936Z,16.10
2023-04-18T23:27:49.854Z,15.48
2023-04-18T23:30:17.292Z,17.58
2023-04-18T23:32:44.134Z,15.90
2023-04-18T23:35:11.465Z,17.80
2023-04-18T23:37:38.276Z,21.38
2023-04-18T23:40:07.014Z,22.52
2023-04-18T23:42:37.172Z,16.55
2023-04-18T23:45:05.807Z,17.35
2023-04-18T23:47:32.696Z,15.63
2023-04-18T23:49:59.532Z,14.90
2023-04-18T23:52:26.349Z,15.70
2023-04-18T23:54:53.232Z,14.68
2023-04-18T23:57:19.934Z,14.20
2023-04-18T23:59:46.771Z,14.02
